Time;durP1;ratioP1;P1;durP2;ratioP2;P2;SDS_P1;SDS_P2;PMS_P1;PMS_P2;Temp;Humidity;BMP_temperature;BMP_pressure;BME280_temperature;BME280_humidity;BME280_pressure;Samples;Min_cycle;Max_cycle;Signal;HPM_P1;HPM_P2
2022/11/08 00:01:40;;;;;;;24.73;12.70;;;20.90;65.60;;;;;;5063934;28;20035;-82
2022/11/08 00:04:12;;;;;;;23.08;12.02;;;20.90;65.60;;;;;;5064359;28;20017;-80
2022/11/08 00:14:53;;;;;;;30.05;12.20;;;21.00;66.60;;;;;;5058729;28;20056;-76
2022/11/08 00:17:21;;;;;;;23.15;11.02;;;21.00;65.40;;;;;;5072088;28;20024;-82
2022/11/08 00:19:47;;;;;;;26.50;15.68;;;20.90;64.50;;;;;;5052373;28;20025;-80
2022/11/08 00:22:14;;;;;;;26.58;16.63;;;20.80;60.50;;;;;;5058943;28;20032;-79
2022/11/08 00:24:40;;;;;;;36.17;20.85;;;20.70;59.00;;;;;;5050494;28;20066;-75
2022/11/08 00:27:10;;;;;;;33.15;16.23;;;20.50;57.30;;;;;;5063179;28;20127;-75
2022/11/08 00:29:36;;;;;;;35.83;16.15;;;20.50;58.20;;;;;;5052425;28;20094;-75
2022/11/08 00:32:07;;;;;;;27.83;15.45;;;20.50;59.00;;;;;;5053092;28;20054;-76
2022/11/08 00:34:34;;;;;;;30.85;15.02;;;20.60;59.70;;;;;;5036429;28;20068;-76
2022/11/08 00:37:00;;;;;;;26.85;14.73;;;20.60;59.80;;;;;;5054182;28;20356;-76
2022/11/08 00:39:26;;;;;;;27.92;14.13;;;20.60;60.30;;;;;;5053741;28;20076;-75
2022/11/08 00:41:51;;;;;;;26.95;14.05;;;20.60;60.60;;;;;;5056117;28;20067;-75
2022/11/08 00:44:17;;;;;;;30.85;14.48;;;20.70;60.90;;;;;;5055917;28;20386;-76
2022/11/08 00:46:43;;;;;;;25.42;14.50;;;20.70;61.20;;;;;;5061253;28;20707;-76
2022/11/08 00:49:09;;;;;;;29.35;13.93;;;20.70;61.40;;;;;;5053274;28;20033;-76
2022/11/08 00:51:36;;;;;;;26.17;13.70;;;20.70;61.60;;;;;;5054530;28;20047;-76
2022/11/08 00:54:03;;;;;;;22.67;13.23;;;20.70;61.70;;;;;;5061908;28;20037;-76
2022/11/08 00:56:29;;;;;;;30.05;14.13;;;20.70;61.70;;;;;;5059553;28;20474;-76
2022/11/08 00:58:54;;;;;;;27.65;12.95;;;20.70;62.00;;;;;;5034979;28;20059;-76
2022/11/08 01:01:20;;;;;;;27.42;13.18;;;20.70;62.10;;;;;;5053404;28;20029;-76
2022/11/08 01:03:47;;;;;;;28.17;14.07;;;20.70;62.10;;;;;;5059053;28;20021;-76
2022/11/08 01:06:15;;;;;;;27.60;14.57;;;20.70;62.20;;;;;;5063095;28;20481;-75
2022/11/08 01:08:41;;;;;;;26.20;13.50;;;20.80;62.40;;;;;;5057121;28;20035;-75
2022/11/08 01:11:14;;;;;;;34.15;13.32;;;20.80;62.60;;;;;;5060723;28;20059;-75
2022/11/08 01:13:40;;;;;;;24.80;13.18;;;20.80;62.60;;;;;;5057367;28;20029;-75
2022/11/08 01:16:08;;;;;;;23.27;12.30;;;20.80;62.70;;;;;;5057592;28;20029;-75
2022/11/08 01:18:34;;;;;;;22.65;12.73;;;20.80;63.00;;;;;;5060255;28;20494;-75
2022/11/08 01:21:02;;;;;;;24.95;13.02;;;20.80;62.90;;;;;;5060580;28;20091;-75
2022/11/08 01:23:28;;;;;;;27.58;12.40;;;20.80;63.00;;;;;;5052178;28;21239;-75
2022/11/08 01:25:54;;;;;;;26.55;12.52;;;20.80;63.10;;;;;;5051150;28;20021;-75
2022/11/08 01:28:19;;;;;;;23.23;13.32;;;20.80;63.20;;;;;;5060948;28;20079;-75
2022/11/08 01:30:46;;;;;;;24.63;12.93;;;20.80;63.10;;;;;;5040776;28;20036;-75
2022/11/08 01:33:12;;;;;;;24.27;12.02;;;20.80;63.20;;;;;;5054229;28;20033;-75
2022/11/08 01:35:38;;;;;;;22.02;12.23;;;20.80;63.40;;;;;;5053471;28;20021;-75
2022/11/08 01:38:05;;;;;;;20.88;11.98;;;20.80;63.40;;;;;;5026594;28;20104;-75
2022/11/08 01:40:31;;;;;;;21.95;12.13;;;20.80;63.40;;;;;;5055332;28;20131;-76
2022/11/08 01:42:57;;;;;;;23.33;11.98;;;20.80;63.40;;;;;;5054973;28;20501;-75
2022/11/08 01:46:08;;;;;;;23.90;11.40;;;20.80;63.60;;;;;;5057971;28;20032;-75
2022/11/08 01:48:38;;;;;;;21.13;11.90;;;20.80;63.60;;;;;;4991298;28;20031;-76
2022/11/08 01:51:07;;;;;;;20.20;11.63;;;20.80;63.60;;;;;;5054038;28;20039;-76
2022/11/08 01:53:33;;;;;;;22.35;11.65;;;20.80;63.50;;;;;;5051643;28;20044;-75
2022/11/08 01:55:59;;;;;;;21.15;11.25;;;20.80;63.90;;;;;;5059544;28;20020;-75
2022/11/08 01:58:30;;;;;;;20.55;11.75;;;20.80;63.90;;;;;;5050821;28;20031;-75
2022/11/08 02:00:58;;;;;;;20.13;11.30;;;20.80;63.90;;;;;;5054634;28;20681;-75
2022/11/08 02:03:24;;;;;;;18.10;11.55;;;20.80;63.80;;;;;;5054225;28;20021;-75
2022/11/08 02:05:50;;;;;;;17.98;10.25;;;20.80;64.30;;;;;;5060538;28;20567;-75
2022/11/08 02:08:21;;;;;;;15.43;9.75;;;20.80;64.00;;;;;;5061331;28;20056;-75
2022/11/08 02:10:50;;;;;;;18.65;11.07;;;20.80;64.00;;;;;;5057943;28;20029;-75
2022/11/08 02:13:28;;;;;;;20.42;10.30;;;20.80;64.20;;;;;;5055311;28;20120;-76
2022/11/08 02:15:54;;;;;;;19.55;11.10;;;20.80;64.30;;;;;;5053952;28;20482;-76
2022/11/08 02:18:22;;;;;;;19.08;10.38;;;20.80;64.30;;;;;;5052680;28;20032;-75
2022/11/08 02:21:09;;;;;;;21.17;10.32;;;20.80;64.50;;;;;;5056016;28;20035;-76
2022/11/08 02:23:45;;;;;;;19.08;11.00;;;20.80;64.40;;;;;;5029250;28;20028;-76
2022/11/08 02:26:11;;;;;;;19.40;11.10;;;20.80;64.30;;;;;;5062799;28;20107;-76
2022/11/08 02:28:42;;;;;;;16.52;9.73;;;20.80;64.10;;;;;;5069370;28;20570;-76
2022/11/08 02:31:08;;;;;;;18.75;10.60;;;20.80;64.10;;;;;;5052390;28;20487;-76
2022/11/08 02:33:34;;;;;;;20.58;10.25;;;20.80;64.40;;;;;;5051985;28;20029;-76
2022/11/08 02:36:01;;;;;;;19.15;9.55;;;20.80;64.50;;;;;;5052582;28;20029;-76
2022/11/08 02:38:27;;;;;;;19.58;9.70;;;20.80;64.10;;;;;;5050998;28;20046;-76
2022/11/08 02:40:55;;;;;;;17.83;9.52;;;20.80;64.10;;;;;;5052366;28;20060;-76
2022/11/08 02:43:22;;;;;;;18.42;10.07;;;20.80;64.10;;;;;;5052857;28;20036;-76
2022/11/08 02:45:49;;;;;;;16.67;9.77;;;20.80;64.10;;;;;;5056427;28;20021;-76
2022/11/08 02:48:16;;;;;;;15.45;9.70;;;20.80;64.10;;;;;;5066402;28;20103;-75
2022/11/08 02:50:42;;;;;;;13.77;8.98;;;20.80;64.20;;;;;;5051454;28;20056;-76
2022/11/08 02:53:07;;;;;;;16.00;9.20;;;20.80;64.20;;;;;;5057070;28;20497;-76
2022/11/08 02:55:34;;;;;;;16.23;9.43;;;20.80;64.20;;;;;;5059420;28;20444;-76
2022/11/08 02:58:01;;;;;;;16.70;9.60;;;20.80;64.50;;;;;;5058642;28;20375;-76
2022/11/08 03:00:27;;;;;;;15.10;9.23;;;20.80;64.80;;;;;;5049976;28;20104;-76
2022/11/08 03:02:54;;;;;;;15.00;8.77;;;20.80;64.50;;;;;;5058708;28;20465;-76
2022/11/08 03:05:20;;;;;;;15.93;9.13;;;20.80;64.60;;;;;;5032790;28;20025;-76
2022/11/08 03:07:47;;;;;;;19.10;9.02;;;20.80;64.30;;;;;;5056679;28;20100;-76
2022/11/08 03:10:13;;;;;;;16.67;9.57;;;20.80;64.30;;;;;;5058827;28;20032;-77
2022/11/08 03:12:40;;;;;;;18.60;9.23;;;20.80;64.20;;;;;;5035957;28;20032;-77
2022/11/08 03:15:07;;;;;;;18.50;10.23;;;20.80;64.30;;;;;;5054138;28;20029;-77
2022/11/08 03:17:33;;;;;;;15.65;9.55;;;20.80;64.30;;;;;;5056799;28;20498;-77
2022/11/08 03:19:59;;;;;;;14.57;9.20;;;20.80;64.50;;;;;;5059435;28;20028;-77
2022/11/08 03:22:25;;;;;;;16.38;9.00;;;20.90;64.30;;;;;;5055788;28;20502;-77
2022/11/08 03:24:51;;;;;;;17.85;9.18;;;20.80;64.30;;;;;;5056862;28;20532;-77
2022/11/08 03:27:18;;;;;;;15.27;9.70;;;20.80;64.50;;;;;;5057988;28;20108;-77
2022/11/08 03:29:44;;;;;;;19.00;9.52;;;20.80;64.40;;;;;;5057136;28;20017;-76
2022/11/08 03:32:11;;;;;;;16.90;8.93;;;20.90;64.60;;;;;;5040738;28;20032;-76
2022/11/08 03:34:36;;;;;;;16.55;8.15;;;20.80;64.50;;;;;;5077675;28;20024;-76
2022/11/08 03:37:04;;;;;;;18.20;9.43;;;20.80;64.50;;;;;;5055837;28;20024;-76
2022/11/08 03:39:30;;;;;;;16.27;8.13;;;20.80;64.50;;;;;;5050360;28;20063;-77
2022/11/08 03:41:58;;;;;;;13.95;8.43;;;20.80;64.70;;;;;;5055841;28;20033;-77
2022/11/08 03:44:24;;;;;;;15.20;8.38;;;20.80;64.60;;;;;;5035646;28;20059;-77
2022/11/08 03:46:51;;;;;;;13.88;7.90;;;20.80;64.60;;;;;;5064901;28;20027;-77
2022/11/08 03:49:17;;;;;;;17.83;7.65;;;20.80;65.10;;;;;;5071398;28;20029;-77
2022/11/08 03:51:42;;;;;;;14.82;8.35;;;20.80;64.50;;;;;;5056144;28;20737;-77
2022/11/08 03:54:09;;;;;;;15.98;8.75;;;20.80;64.60;;;;;;5050288;28;20029;-76
2022/11/08 03:56:35;;;;;;;16.08;8.25;;;20.80;64.60;;;;;;5053505;28;20028;-76
2022/11/08 03:59:00;;;;;;;15.32;8.95;;;20.90;64.90;;;;;;5052228;28;20033;-76
2022/11/08 04:01:26;;;;;;;13.02;7.80;;;20.90;65.30;;;;;;5058010;28;20116;-75
2022/11/08 04:03:52;;;;;;;13.63;8.25;;;20.80;64.80;;;;;;5049704;28;20025;-76
2022/11/08 04:06:17;;;;;;;14.48;8.20;;;20.90;64.90;;;;;;5050090;28;20064;-75
2022/11/08 04:08:43;;;;;;;15.57;7.95;;;20.90;64.90;;;;;;5057175;28;20053;-76
2022/11/08 04:16:37;;;;;;;16.45;7.82;;;20.80;65.00;;;;;;5054203;28;20040;-75
2022/11/08 04:21:51;;;;;;;13.52;7.88;;;20.80;65.30;;;;;;5030810;28;20105;-75
2022/11/08 04:24:17;;;;;;;18.37;8.87;;;20.80;65.30;;;;;;5056386;28;20375;-76
2022/11/08 04:26:43;;;;;;;16.20;8.52;;;20.80;65.30;;;;;;5052622;28;20025;-75
2022/11/08 04:29:09;;;;;;;15.10;8.75;;;20.80;65.40;;;;;;5060822;28;20052;-75
2022/11/08 04:31:35;;;;;;;16.92;8.00;;;20.80;65.50;;;;;;5058147;28;20056;-76
2022/11/08 04:34:01;;;;;;;16.80;7.90;;;20.90;65.50;;;;;;5059362;28;20055;-76
2022/11/08 04:36:27;;;;;;;13.93;7.50;;;20.80;65.60;;;;;;5053409;28;20563;-76
2022/11/08 04:38:53;;;;;;;14.35;7.70;;;20.80;65.60;;;;;;5060039;28;20393;-77
2022/11/08 04:41:31;;;;;;;15.25;7.93;;;20.90;65.60;;;;;;5060327;28;20060;-78
2022/11/08 04:43:57;;;;;;;14.23;7.60;;;20.80;65.80;;;;;;5012486;28;20046;-76
2022/11/08 04:46:26;;;;;;;14.27;7.30;;;20.80;65.30;;;;;;5033302;28;20080;-77
2022/11/08 04:48:54;;;;;;;12.82;7.03;;;20.80;65.60;;;;;;5033160;28;20029;-77
2022/11/08 04:51:28;;;;;;;18.20;7.30;;;20.80;65.20;;;;;;5032309;28;20033;-77
2022/11/08 04:53:56;;;;;;;14.70;7.63;;;20.80;65.20;;;;;;4995600;28;20034;-77
2022/11/08 04:56:22;;;;;;;11.35;7.30;;;20.80;65.10;;;;;;5013456;28;20034;-76
2022/11/08 04:58:53;;;;;;;15.00;7.50;;;20.80;65.20;;;;;;5013094;28;20030;-75
2022/11/08 05:01:21;;;;;;;11.70;7.07;;;20.80;65.30;;;;;;5013340;28;21172;-75
2022/11/08 05:03:49;;;;;;;11.98;7.00;;;20.80;65.50;;;;;;5010707;28;20487;-76
2022/11/08 05:06:17;;;;;;;12.05;6.53;;;20.80;65.30;;;;;;5011021;28;20395;-76
2022/11/08 05:08:43;;;;;;;16.00;7.30;;;20.80;65.60;;;;;;4993946;28;20395;-76
2022/11/08 05:11:12;;;;;;;14.38;7.53;;;20.80;65.30;;;;;;5013062;28;20026;-75
2022/11/08 05:13:38;;;;;;;12.07;7.32;;;20.80;65.30;;;;;;5012895;28;20056;-76
2022/11/08 05:16:12;;;;;;;13.80;7.20;;;20.80;65.40;;;;;;5013473;28;20030;-76
2022/11/08 05:18:39;;;;;;;12.13;7.18;;;20.80;65.60;;;;;;5006846;28;20479;-76
2022/11/08 05:23:50;;;;;;;12.57;7.07;;;20.80;66.00;;;;;;5012909;28;20030;-76
2022/11/08 05:26:17;;;;;;;13.05;7.30;;;20.80;65.50;;;;;;5008622;28;20049;-76
2022/11/08 05:28:43;;;;;;;13.07;7.15;;;20.80;65.30;;;;;;4996218;28;20476;-76
2022/11/08 05:31:10;;;;;;;11.02;6.10;;;20.80;65.20;;;;;;5010821;28;20167;-76
2022/11/08 05:33:36;;;;;;;14.15;6.93;;;20.80;65.20;;;;;;5018232;28;20030;-75
2022/11/08 05:36:04;;;;;;;13.30;6.75;;;20.90;65.50;;;;;;4993769;28;20554;-75
2022/11/08 05:38:30;;;;;;;12.43;7.10;;;20.80;65.30;;;;;;5012459;28;20025;-76
2022/11/08 05:41:12;;;;;;;13.68;7.22;;;20.80;65.40;;;;;;5012627;28;20479;-76
2022/11/08 05:44:01;;;;;;;12.63;6.35;;;20.80;65.50;;;;;;5010408;28;20030;-76
2022/11/08 05:46:36;;;;;;;12.52;7.20;;;20.80;65.70;;;;;;5012474;28;20026;-76
2022/11/08 05:49:02;;;;;;;12.52;6.53;;;20.90;65.60;;;;;;5012067;28;20434;-76
2022/11/08 05:51:28;;;;;;;14.70;6.80;;;20.80;65.70;;;;;;5012266;28;20041;-76
2022/11/08 05:53:53;;;;;;;12.75;6.53;;;20.80;65.50;;;;;;5010941;28;20091;-76
2022/11/08 05:56:19;;;;;;;13.77;7.07;;;20.80;65.50;;;;;;5012329;28;20022;-76
2022/11/08 05:58:45;;;;;;;13.25;6.68;;;20.80;65.50;;;;;;4995397;28;20030;-76
2022/11/08 06:01:18;;;;;;;12.35;6.40;;;20.80;65.40;;;;;;5012165;28;20120;-75
2022/11/08 06:03:44;;;;;;;13.75;6.78;;;20.80;65.40;;;;;;5009215;28;20403;-76
2022/11/08 06:06:13;;;;;;;12.73;6.88;;;20.80;65.50;;;;;;4994610;28;20041;-76
2022/11/08 06:08:39;;;;;;;13.10;6.75;;;20.80;65.50;;;;;;5013021;28;20037;-76
2022/11/08 06:11:10;;;;;;;12.82;6.97;;;20.80;65.50;;;;;;4978428;28;20057;-76
2022/11/08 06:13:38;;;;;;;11.10;5.95;;;20.80;66.50;;;;;;5011604;28;20061;-76
2022/11/08 06:16:09;;;;;;;13.20;6.50;;;20.80;65.90;;;;;;5009243;28;20087;-76
2022/11/08 06:18:36;;;;;;;11.75;6.57;;;20.80;66.00;;;;;;5011953;28;20441;-76
2022/11/08 06:21:04;;;;;;;11.65;6.32;;;20.80;65.70;;;;;;4998052;28;20032;-76
2022/11/08 06:23:30;;;;;;;11.13;6.00;;;20.80;65.90;;;;;;5009649;28;20117;-77
2022/11/08 06:25:56;;;;;;;14.90;6.97;;;20.80;65.80;;;;;;5011298;28;20030;-77
2022/11/08 06:28:22;;;;;;;13.52;6.40;;;20.80;65.90;;;;;;5011781;28;20021;-76
2022/11/08 06:30:48;;;;;;;11.98;6.57;;;20.80;65.70;;;;;;5010528;28;20471;-76
2022/11/08 06:33:14;;;;;;;14.68;6.95;;;20.80;65.70;;;;;;5011313;28;20022;-75
2022/11/08 06:35:40;;;;;;;13.48;6.40;;;20.80;65.90;;;;;;5001245;28;20029;-76
2022/11/08 06:38:06;;;;;;;11.32;6.63;;;20.80;65.50;;;;;;5010788;28;20026;-77
2022/11/08 06:40:32;;;;;;;11.40;6.10;;;20.80;65.70;;;;;;5011649;28;20161;-76
2022/11/08 06:42:58;;;;;;;13.52;6.28;;;20.80;65.40;;;;;;5010462;28;20034;-76
2022/11/08 06:45:25;;;;;;;20.35;6.05;;;20.80;65.30;;;;;;5010315;28;20442;-76
2022/11/08 06:48:02;;;;;;;12.10;6.25;;;20.80;65.30;;;;;;5013472;28;20509;-76
2022/11/08 06:50:29;;;;;;;12.80;6.57;;;20.80;65.70;;;;;;5011113;28;20145;-76
2022/11/08 06:53:00;;;;;;;12.90;6.07;;;20.90;65.70;;;;;;4993180;28;20476;-76
2022/11/08 06:55:26;;;;;;;11.88;6.50;;;20.80;65.70;;;;;;5009828;28;20108;-76
2022/11/08 06:57:52;;;;;;;12.43;6.40;;;20.90;66.10;;;;;;4988716;28;20030;-76
2022/11/08 07:00:18;;;;;;;12.23;6.32;;;20.80;65.70;;;;;;4999113;28;20041;-75
2022/11/08 07:02:44;;;;;;;14.15;6.22;;;20.80;65.50;;;;;;5010339;28;20645;-76
2022/11/08 07:05:11;;;;;;;10.43;6.20;;;20.90;65.50;;;;;;5005430;28;20029;-77
2022/11/08 07:07:37;;;;;;;10.48;5.82;;;20.80;65.70;;;;;;5001080;28;20026;-77
2022/11/08 07:10:04;;;;;;;12.43;6.30;;;20.80;65.50;;;;;;4994442;28;20104;-77
2022/11/08 07:12:30;;;;;;;10.38;5.88;;;20.80;66.10;;;;;;5011723;28;20038;-76
2022/11/08 07:14:56;;;;;;;13.10;5.55;;;20.80;65.30;;;;;;4994254;28;20076;-76
2022/11/08 07:17:22;;;;;;;11.73;6.13;;;20.80;65.60;;;;;;5011742;28;20065;-76
2022/11/08 07:19:48;;;;;;;12.68;6.25;;;20.80;65.70;;;;;;5011756;28;20026;-76
2022/11/08 07:22:13;;;;;;;11.30;6.55;;;20.80;65.60;;;;;;5011012;28;20033;-76
2022/11/08 07:24:39;;;;;;;12.55;6.35;;;20.80;65.90;;;;;;4961656;28;20531;-76
2022/11/08 07:27:05;;;;;;;12.05;6.28;;;20.80;65.80;;;;;;5011712;28;20036;-76
2022/11/08 07:29:30;;;;;;;10.63;6.05;;;20.80;65.70;;;;;;5010778;28;20041;-76
2022/11/08 07:31:56;;;;;;;10.95;6.18;;;20.80;65.60;;;;;;4994384;28;20121;-75
2022/11/08 07:34:23;;;;;;;12.20;6.13;;;20.80;65.70;;;;;;5011423;28;20073;-76
2022/11/08 07:36:48;;;;;;;14.40;6.50;;;20.90;65.70;;;;;;5011447;28;20025;-76
2022/11/08 07:39:14;;;;;;;10.63;6.05;;;20.80;65.90;;;;;;5011859;28;20033;-76
2022/11/08 07:41:40;;;;;;;11.40;6.30;;;20.80;66.00;;;;;;5010575;28;20026;-76
2022/11/08 07:44:06;;;;;;;12.20;6.72;;;20.80;66.40;;;;;;4993911;28;20070;-76
2022/11/08 07:46:31;;;;;;;13.15;6.07;;;20.80;65.90;;;;;;5003693;28;20496;-76
2022/11/08 07:48:57;;;;;;;9.38;5.80;;;20.80;66.20;;;;;;5010430;28;20073;-75
2022/11/08 07:51:23;;;;;;;14.15;6.22;;;20.80;66.30;;;;;;4993008;28;20046;-75
2022/11/08 07:53:49;;;;;;;20.65;6.55;;;20.80;67.80;;;;;;5010049;28;20022;-75
2022/11/08 07:56:14;;;;;;;12.65;6.47;;;20.90;67.60;;;;;;5011009;28;20481;-75
2022/11/08 07:58:40;;;;;;;13.75;5.70;;;20.90;67.50;;;;;;5010002;28;20495;-75
2022/11/08 08:01:06;;;;;;;20.63;7.10;;;20.90;67.80;;;;;;5018977;28;20069;-75
2022/11/08 08:03:32;;;;;;;13.45;5.90;;;20.90;68.30;;;;;;5014293;28;20025;-78
2022/11/08 08:05:58;;;;;;;29.63;6.60;;;20.90;67.80;;;;;;5017516;28;20034;-76
2022/11/08 08:08:24;;;;;;;24.35;6.60;;;20.90;68.90;;;;;;4997020;28;20028;-75
2022/11/08 08:10:50;;;;;;;19.75;6.28;;;21.00;68.90;;;;;;4996763;28;20029;-75
2022/11/08 08:13:15;;;;;;;32.75;6.57;;;21.00;69.50;;;;;;5013887;28;20029;-75
2022/11/08 08:15:41;;;;;;;25.63;6.93;;;21.00;68.60;;;;;;5014077;28;20056;-74
2022/11/08 08:18:08;;;;;;;18.50;6.30;;;21.00;68.70;;;;;;5013813;28;20033;-75
2022/11/08 08:20:35;;;;;;;19.35;6.13;;;21.00;68.60;;;;;;5015232;28;20037;-74
2022/11/08 08:23:01;;;;;;;24.02;6.82;;;21.00;69.10;;;;;;5010653;28;20033;-75
2022/11/08 08:25:29;;;;;;;19.13;6.50;;;21.00;69.10;;;;;;4996547;28;20029;-75
2022/11/08 08:27:58;;;;;;;19.95;6.53;;;21.00;68.80;;;;;;5014835;28;20379;-73
2022/11/08 08:30:24;;;;;;;13.17;6.00;;;21.00;68.40;;;;;;5008532;28;20030;-75
2022/11/08 08:32:50;;;;;;;14.25;6.50;;;21.00;68.20;;;;;;5012064;28;20475;-75
2022/11/08 08:35:16;;;;;;;18.80;6.78;;;21.00;68.30;;;;;;4996745;28;20034;-75
2022/11/08 08:37:42;;;;;;;20.65;6.65;;;21.00;68.80;;;;;;5014205;28;20036;-75
2022/11/08 08:40:09;;;;;;;22.60;7.10;;;21.00;69.10;;;;;;5014691;28;20026;-74
2022/11/08 08:42:35;;;;;;;21.67;6.07;;;21.00;70.60;;;;;;5013244;28;20034;-75
2022/11/08 08:45:01;;;;;;;19.58;6.90;;;21.10;70.40;;;;;;4997146;28;20626;-74
2022/11/08 08:47:27;;;;;;;35.05;7.38;;;21.10;71.00;;;;;;5014537;28;20046;-74
2022/11/08 08:49:53;;;;;;;20.15;5.90;;;21.10;70.10;;;;;;5012926;28;20510;-76
2022/11/08 08:52:19;;;;;;;20.88;7.18;;;21.20;70.60;;;;;;4996176;28;20097;-74
2022/11/08 08:54:45;;;;;;;42.13;7.18;;;21.20;72.80;;;;;;5010932;28;20030;-74
2022/11/08 08:57:11;;;;;;;20.13;7.53;;;21.30;71.10;;;;;;4996814;28;20661;-74
2022/11/08 08:59:36;;;;;;;19.02;7.57;;;21.30;70.80;;;;;;5012688;28;20029;-74
2022/11/08 09:02:02;;;;;;;30.50;7.38;;;21.30;71.10;;;;;;5017473;28;20403;-74
2022/11/08 09:04:28;;;;;;;24.10;7.13;;;21.30;70.30;;;;;;5007605;28;20431;-74
2022/11/08 09:06:54;;;;;;;23.45;7.72;;;21.30;70.60;;;;;;4993086;28;20018;-75
2022/11/08 09:09:20;;;;;;;22.75;7.97;;;21.30;70.80;;;;;;5010275;28;20041;-75
2022/11/08 09:11:46;;;;;;;23.48;7.85;;;21.20;70.80;;;;;;5011592;28;20506;-74
2022/11/08 09:14:12;;;;;;;18.27;7.68;;;21.20;70.60;;;;;;5010987;28;20018;-74
2022/11/08 09:16:38;;;;;;;17.83;6.70;;;21.20;70.80;;;;;;5011906;28;20037;-75
2022/11/08 09:19:03;;;;;;;17.45;6.63;;;21.10;70.70;;;;;;5011967;28;20030;-72
2022/11/08 09:21:29;;;;;;;17.17;7.07;;;21.10;70.90;;;;;;5011770;28;20029;-71
2022/11/08 09:23:55;;;;;;;35.53;22.48;;;21.10;70.30;;;;;;5007398;28;20499;-74
2022/11/08 09:26:20;;;;;;;33.33;20.48;;;21.00;65.60;;;;;;5010910;28;20105;-75
2022/11/08 09:28:46;;;;;;;26.35;16.60;;;21.00;64.80;;;;;;4992179;28;20026;-75
2022/11/08 09:31:12;;;;;;;27.98;12.82;;;21.00;65.00;;;;;;4994446;28;20034;-74
2022/11/08 09:33:39;;;;;;;23.75;13.27;;;20.90;65.30;;;;;;5010993;28;20064;-75
2022/11/08 09:36:07;;;;;;;28.35;13.50;;;21.00;66.90;;;;;;5011662;28;20186;-76
2022/11/08 09:38:33;;;;;;;26.13;10.10;;;21.00;67.20;;;;;;5002923;28;20298;-76
2022/11/08 09:41:42;;;;;;;12.50;4.82;;;21.00;66.10;;;;;;5012472;28;20033;-77
2022/11/08 09:44:24;;;;;;;17.52;6.28;;;20.90;61.50;;;;;;4990658;28;20037;-75
2022/11/08 09:46:54;;;;;;;17.13;6.05;;;20.90;62.80;;;;;;5010878;28;20132;-75
2022/11/08 09:49:34;;;;;;;11.85;6.25;;;20.90;63.30;;;;;;5011775;28;20100;-75
2022/11/08 09:52:03;;;;;;;19.52;7.20;;;20.90;63.30;;;;;;5011104;28;20120;-75
2022/11/08 09:54:37;;;;;;;17.48;6.63;;;20.90;63.60;;;;;;4999177;28;20034;-75
2022/11/08 09:57:05;;;;;;;17.05;7.05;;;20.90;64.00;;;;;;5010258;28;20036;-75
2022/11/08 09:59:41;;;;;;;13.98;6.25;;;21.00;64.10;;;;;;5011743;28;20092;-75
2022/11/08 10:02:22;;;;;;;16.05;6.57;;;21.00;64.10;;;;;;5009881;28;20034;-75
2022/11/08 10:05:01;;;;;;;15.13;6.45;;;21.00;64.20;;;;;;5009589;28;20025;-75
2022/11/08 10:07:40;;;;;;;24.80;7.03;;;21.00;64.40;;;;;;5010835;28;20014;-75
2022/11/08 10:10:37;;;;;;;15.90;6.18;;;21.10;64.70;;;;;;5009911;28;20423;-75
2022/11/08 10:13:33;;;;;;;17.98;7.05;;;21.10;64.90;;;;;;5009677;28;20056;-75
2022/11/08 10:16:30;;;;;;;21.10;6.85;;;21.20;65.10;;;;;;5007116;28;20081;-75
2022/11/08 10:18:59;;;;;;;22.70;7.07;;;21.10;64.80;;;;;;4986026;28;20072;-75
2022/11/08 10:22:01;;;;;;;18.15;6.07;;;21.10;64.80;;;;;;5009626;28;20361;-75
2022/11/08 10:24:36;;;;;;;14.63;6.30;;;21.10;64.90;;;;;;5009806;28;20081;-75
2022/11/08 10:27:09;;;;;;;14.27;6.38;;;21.10;65.10;;;;;;5011138;28;20022;-76
2022/11/08 10:29:42;;;;;;;12.55;5.95;;;21.10;65.20;;;;;;5011777;28;20187;-75
2022/11/08 10:32:20;;;;;;;12.65;6.40;;;21.00;65.60;;;;;;5010973;28;20022;-75
2022/11/08 10:35:10;;;;;;;12.85;5.93;;;21.10;65.20;;;;;;5010329;28;20037;-75
2022/11/08 10:37:39;;;;;;;16.80;6.30;;;21.10;65.30;;;;;;5011307;28;20165;-75
2022/11/08 10:40:44;;;;;;;18.48;6.43;;;21.00;65.30;;;;;;5010764;28;20037;-75
2022/11/08 10:43:23;;;;;;;11.95;5.63;;;21.00;65.30;;;;;;5052728;22;20063;-72
2022/11/08 10:45:49;;;;;;;15.40;6.55;;;21.10;65.40;;;;;;5050576;28;20037;-72
2022/11/08 10:48:15;;;;;;;12.82;6.13;;;21.10;65.50;;;;;;5069479;28;20496;-72
2022/11/08 10:50:49;;;;;;;12.30;5.85;;;21.10;65.50;;;;;;5070060;28;20024;-72
2022/11/08 10:53:24;;;;;;;13.38;6.00;;;21.00;65.50;;;;;;5069411;28;20075;-72
2022/11/08 10:55:57;;;;;;;15.05;6.65;;;21.00;65.50;;;;;;5068742;28;20056;-72
2022/11/08 10:58:42;;;;;;;14.85;6.20;;;21.10;65.50;;;;;;5068261;28;20056;-72
2022/11/08 11:01:17;;;;;;;14.70;6.57;;;21.10;65.50;;;;;;5068761;28;20032;-72
2022/11/08 11:03:45;;;;;;;11.93;6.18;;;21.10;65.50;;;;;;5051340;28;20032;-73
2022/11/08 11:06:30;;;;;;;14.43;6.30;;;21.00;65.50;;;;;;5051894;28;20048;-73
2022/11/08 11:08:58;;;;;;;13.55;6.90;;;21.10;65.60;;;;;;5069763;28;20032;-74
2022/11/08 11:11:30;;;;;;;14.18;6.57;;;21.10;65.70;;;;;;5069448;28;20028;-74
2022/11/08 11:14:11;;;;;;;13.63;6.00;;;21.10;65.70;;;;;;5067607;28;20041;-73
2022/11/08 11:17:00;;;;;;;11.77;6.20;;;21.10;65.60;;;;;;5035301;28;20032;-74
2022/11/08 11:19:27;;;;;;;12.50;6.15;;;21.10;65.60;;;;;;5068402;28;20024;-73
2022/11/08 11:22:13;;;;;;;11.48;5.63;;;21.10;65.60;;;;;;5068064;28;20036;-74
2022/11/08 11:24:48;;;;;;;11.55;6.25;;;21.10;65.70;;;;;;5069101;28;20265;-73
2022/11/08 11:27:31;;;;;;;12.32;5.82;;;21.10;65.60;;;;;;5069473;28;20032;-73
2022/11/08 11:30:31;;;;;;;14.23;6.22;;;21.10;65.60;;;;;;5067953;28;20150;-73
2022/11/08 11:33:03;;;;;;;10.23;6.03;;;21.10;66.00;;;;;;5068479;28;20032;-73
2022/11/08 11:35:42;;;;;;;12.27;5.93;;;21.20;65.60;;;;;;5069063;28;20052;-73
2022/11/08 11:38:18;;;;;;;13.37;6.10;;;21.20;65.60;;;;;;5069311;28;20051;-73
2022/11/08 11:40:46;;;;;;;12.93;6.13;;;21.20;65.70;;;;;;5067919;28;20270;-74
2022/11/08 11:43:20;;;;;;;10.32;6.10;;;21.10;65.60;;;;;;5050553;28;20032;-73
2022/11/08 11:45:57;;;;;;;11.32;5.75;;;21.20;65.70;;;;;;5068986;28;20029;-74
2022/11/08 11:48:32;;;;;;;13.25;6.22;;;21.20;65.80;;;;;;5069442;28;20032;-73
2022/11/08 11:50:58;;;;;;;11.80;5.38;;;21.10;65.70;;;;;;5067971;28;20398;-73
2022/11/08 11:53:35;;;;;;;14.05;6.35;;;21.10;65.90;;;;;;5068063;28;20139;-74
2022/11/08 11:56:22;;;;;;;17.98;7.05;;;21.10;65.40;;;;;;5066759;28;20044;-75
2022/11/08 11:59:03;;;;;;;15.75;6.03;;;21.10;65.40;;;;;;5049290;28;20080;-76
2022/11/08 12:01:48;;;;;;;17.17;6.20;;;21.00;65.00;;;;;;5047641;28;20029;-76
2022/11/08 12:04:38;;;;;;;15.27;5.72;;;21.00;65.20;;;;;;5047482;28;20029;-75
2022/11/08 12:07:22;;;;;;;20.38;5.78;;;21.00;62.20;;;;;;5047805;28;20095;-75
2022/11/08 12:10:24;;;;;;;19.25;4.47;;;21.00;62.10;;;;;;5049082;28;20466;-74
2022/11/08 12:13:11;;;;;;;12.90;5.30;;;21.30;59.30;;;;;;5048605;28;20344;-76
2022/11/08 12:15:46;;;;;;;15.00;5.68;;;21.30;60.90;;;;;;5047668;28;20041;-76
2022/11/08 12:18:45;;;;;;;11.35;4.43;;;21.20;61.20;;;;;;5031398;28;20127;-76
2022/11/08 12:21:26;;;;;;;17.30;4.82;;;21.10;61.50;;;;;;5034351;28;20029;-75
2022/11/08 12:24:25;;;;;;;19.40;4.78;;;21.10;60.00;;;;;;5062171;28;20052;-76
2022/11/08 12:27:10;;;;;;;16.60;7.97;;;21.00;60.50;;;;;;5066133;28;20059;-75
2022/11/08 12:29:54;;;;;;;17.75;7.53;;;21.00;60.00;;;;;;5069166;28;20478;-76
2022/11/08 12:32:32;;;;;;;16.23;6.68;;;20.90;59.90;;;;;;5068660;28;20028;-75
2022/11/08 12:35:24;;;;;;;17.70;4.97;;;20.90;58.60;;;;;;5068873;28;20048;-76
2022/11/08 12:38:11;;;;;;;15.68;5.38;;;20.80;60.00;;;;;;5050835;28;20032;-75
2022/11/08 12:41:13;;;;;;;12.05;5.47;;;20.80;57.70;;;;;;5067397;28;20056;-75
2022/11/08 12:44:05;;;;;;;13.15;4.97;;;20.90;58.10;;;;;;5066146;28;20025;-75
2022/11/08 12:46:53;;;;;;;14.15;4.45;;;20.90;57.70;;;;;;5064601;28;20032;-75
2022/11/08 12:49:53;;;;;;;14.68;4.57;;;21.00;58.20;;;;;;5071014;28;20025;-75
2022/11/08 12:52:56;;;;;;;10.73;4.70;;;21.00;58.70;;;;;;5069872;28;20052;-75
2022/11/08 12:55:24;;;;;;;12.70;4.65;;;21.00;58.90;;;;;;5072174;28;20052;-75
2022/11/08 12:57:56;;;;;;;10.85;4.20;;;21.00;59.20;;;;;;5072240;28;20035;-76
2022/11/08 13:00:22;;;;;;;11.43;4.47;;;21.10;59.60;;;;;;5070823;28;20059;-74
2022/11/08 13:03:08;;;;;;;15.20;4.78;;;21.10;59.80;;;;;;5070180;28;20116;-75
2022/11/08 13:05:40;;;;;;;13.18;5.15;;;21.00;59.90;;;;;;5030220;28;20039;-74
2022/11/08 13:08:25;;;;;;;16.42;4.50;;;21.10;60.20;;;;;;5070237;28;20253;-75
2022/11/08 13:11:07;;;;;;;11.75;4.45;;;21.10;60.30;;;;;;5050392;28;20020;-75
2022/11/08 13:13:51;;;;;;;11.27;4.47;;;21.10;60.50;;;;;;5050302;28;20327;-75